sensor_id;sensor_type;location;lat;lon;timestamp;P1;durP1;ratioP1;P2;durP2;ratioP2
13592;SDS011;6867;50.998;4.250;2022-08-23T00:02:19;18.17;;;10.85;;
13592;SDS011;6867;50.998;4.250;2022-08-23T00:04:47;13.90;;;10.70;;
13592;SDS011;6867;50.998;4.250;2022-08-23T00:07:14;17.20;;;11.80;;
13592;SDS011;6867;50.998;4.250;2022-08-23T00:09:41;16.48;;;11.90;;
13592;SDS011;6867;50.998;4.250;2022-08-23T00:12:10;18.38;;;11.93;;
13592;SDS011;6867;50.998;4.250;2022-08-23T00:14:40;17.10;;;11.05;;
13592;SDS011;6867;50.998;4.250;2022-08-23T00:17:16;19.33;;;11.82;;
13592;SDS011;6867;50.998;4.250;2022-08-23T00:19:43;14.50;;;10.35;;
13592;SDS011;6867;50.998;4.250;2022-08-23T00:22:12;13.77;;;10.63;;
13592;SDS011;6867;50.998;4.250;2022-08-23T00:24:39;17.65;;;10.25;;
13592;SDS011;6867;50.998;4.250;2022-08-23T00:27:08;14.20;;;10.43;;
13592;SDS011;6867;50.998;4.250;2022-08-23T00:29:37;16.88;;;10.38;;
13592;SDS011;6867;50.998;4.250;2022-08-23T00:32:06;16.90;;;11.77;;
13592;SDS011;6867;50.998;4.250;2022-08-23T00:34:35;14.75;;;10.68;;
13592;SDS011;6867;50.998;4.250;2022-08-23T00:37:03;12.95;;;9.73;;
13592;SDS011;6867;50.998;4.250;2022-08-23T00:39:33;16.10;;;11.20;;
13592;SDS011;6867;50.998;4.250;2022-08-23T00:42:05;17.63;;;10.70;;
13592;SDS011;6867;50.998;4.250;2022-08-23T00:44:49;16.38;;;11.10;;
13592;SDS011;6867;50.998;4.250;2022-08-23T00:47:34;15.40;;;9.95;;
13592;SDS011;6867;50.998;4.250;2022-08-23T00:50:11;13.02;;;9.32;;
13592;SDS011;6867;50.998;4.250;2022-08-23T00:52:45;13.88;;;10.00;;
13592;SDS011;6867;50.998;4.250;2022-08-23T00:55:24;12.15;;;8.63;;
13592;SDS011;6867;50.998;4.250;2022-08-23T00:57:52;13.05;;;10.30;;
13592;SDS011;6867;50.998;4.250;2022-08-23T01:00:19;16.05;;;9.32;;
13592;SDS011;6867;50.998;4.250;2022-08-23T01:02:47;16.23;;;9.93;;
13592;SDS011;6867;50.998;4.250;2022-08-23T01:05:16;18.75;;;10.57;;
13592;SDS011;6867;50.998;4.250;2022-08-23T01:07:45;13.75;;;10.30;;
13592;SDS011;6867;50.998;4.250;2022-08-23T01:10:18;14.77;;;10.73;;
13592;SDS011;6867;50.998;4.250;2022-08-23T01:12:53;16.83;;;10.63;;
13592;SDS011;6867;50.998;4.250;2022-08-23T01:15:24;13.90;;;10.45;;
13592;SDS011;6867;50.998;4.250;2022-08-23T01:17:56;17.20;;;10.38;;
13592;SDS011;6867;50.998;4.250;2022-08-23T01:20:26;17.90;;;10.55;;
13592;SDS011;6867;50.998;4.250;2022-08-23T01:23:01;14.48;;;10.80;;
13592;SDS011;6867;50.998;4.250;2022-08-23T01:25:33;17.67;;;12.07;;
13592;SDS011;6867;50.998;4.250;2022-08-23T01:28:00;18.77;;;12.40;;
13592;SDS011;6867;50.998;4.250;2022-08-23T01:30:29;15.75;;;10.85;;
13592;SDS011;6867;50.998;4.250;2022-08-23T01:32:58;15.57;;;11.07;;
13592;SDS011;6867;50.998;4.250;2022-08-23T01:35:29;15.50;;;10.45;;
13592;SDS011;6867;50.998;4.250;2022-08-23T01:38:01;16.30;;;11.75;;
13592;SDS011;6867;50.998;4.250;2022-08-23T01:40:28;18.10;;;12.63;;
13592;SDS011;6867;50.998;4.250;2022-08-23T01:42:58;16.20;;;11.65;;
13592;SDS011;6867;50.998;4.250;2022-08-23T01:45:26;13.73;;;11.57;;
13592;SDS011;6867;50.998;4.250;2022-08-23T01:47:53;13.50;;;11.10;;
13592;SDS011;6867;50.998;4.250;2022-08-23T01:50:20;14.70;;;10.88;;
13592;SDS011;6867;50.998;4.250;2022-08-23T01:52:47;17.10;;;11.18;;
13592;SDS011;6867;50.998;4.250;2022-08-23T01:55:13;15.55;;;11.20;;
13592;SDS011;6867;50.998;4.250;2022-08-23T01:57:40;14.55;;;10.90;;
13592;SDS011;6867;50.998;4.250;2022-08-23T02:00:11;16.15;;;12.00;;
13592;SDS011;6867;50.998;4.250;2022-08-23T02:02:38;15.20;;;11.15;;
13592;SDS011;6867;50.998;4.250;2022-08-23T02:05:05;17.13;;;12.60;;
13592;SDS011;6867;50.998;4.250;2022-08-23T02:07:33;16.25;;;11.35;;
13592;SDS011;6867;50.998;4.250;2022-08-23T02:09:59;20.13;;;11.13;;
13592;SDS011;6867;50.998;4.250;2022-08-23T02:12:26;16.15;;;11.23;;
13592;SDS011;6867;50.998;4.250;2022-08-23T02:14:53;13.40;;;9.98;;
13592;SDS011;6867;50.998;4.250;2022-08-23T02:17:22;16.17;;;10.85;;
13592;SDS011;6867;50.998;4.250;2022-08-23T02:19:48;17.98;;;11.40;;
13592;SDS011;6867;50.998;4.250;2022-08-23T02:22:15;15.73;;;9.85;;
13592;SDS011;6867;50.998;4.250;2022-08-23T02:24:43;16.52;;;11.05;;
13592;SDS011;6867;50.998;4.250;2022-08-23T02:27:11;18.25;;;10.20;;
13592;SDS011;6867;50.998;4.250;2022-08-23T02:29:40;18.08;;;11.30;;
13592;SDS011;6867;50.998;4.250;2022-08-23T02:32:08;18.35;;;10.57;;
13592;SDS011;6867;50.998;4.250;2022-08-23T02:34:38;15.35;;;10.73;;
13592;SDS011;6867;50.998;4.250;2022-08-23T02:37:06;20.48;;;10.82;;
13592;SDS011;6867;50.998;4.250;2022-08-23T02:39:34;18.15;;;11.02;;
13592;SDS011;6867;50.998;4.250;2022-08-23T02:42:01;18.92;;;12.02;;
13592;SDS011;6867;50.998;4.250;2022-08-23T02:44:29;16.60;;;11.68;;
13592;SDS011;6867;50.998;4.250;2022-08-23T02:46:58;15.95;;;10.82;;
13592;SDS011;6867;50.998;4.250;2022-08-23T02:49:25;18.48;;;12.20;;
13592;SDS011;6867;50.998;4.250;2022-08-23T02:51:54;16.33;;;10.70;;
13592;SDS011;6867;50.998;4.250;2022-08-23T02:54:21;17.58;;;10.73;;
13592;SDS011;6867;50.998;4.250;2022-08-23T02:56:48;15.15;;;11.23;;
13592;SDS011;6867;50.998;4.250;2022-08-23T02:59:15;19.65;;;11.82;;
13592;SDS011;6867;50.998;4.250;2022-08-23T03:01:42;19.50;;;11.70;;
13592;SDS011;6867;50.998;4.250;2022-08-23T03:04:10;19.90;;;12.52;;
13592;SDS011;6867;50.998;4.250;2022-08-23T03:06:37;14.48;;;10.95;;
13592;SDS011;6867;50.998;4.250;2022-08-23T03:09:06;13.07;;;10.35;;
13592;SDS011;6867;50.998;4.250;2022-08-23T03:11:33;14.20;;;10.48;;
13592;SDS011;6867;50.998;4.250;2022-08-23T03:14:00;19.58;;;11.05;;
13592;SDS011;6867;50.998;4.250;2022-08-23T03:16:27;17.73;;;11.43;;
13592;SDS011;6867;50.998;4.250;2022-08-23T03:18:54;16.75;;;10.18;;
13592;SDS011;6867;50.998;4.250;2022-08-23T03:21:20;16.90;;;11.57;;
13592;SDS011;6867;50.998;4.250;2022-08-23T03:23:47;17.35;;;10.55;;
13592;SDS011;6867;50.998;4.250;2022-08-23T03:26:15;15.05;;;10.70;;
13592;SDS011;6867;50.998;4.250;2022-08-23T03:28:42;12.82;;;9.82;;
13592;SDS011;6867;50.998;4.250;2022-08-23T03:31:10;13.25;;;9.32;;
13592;SDS011;6867;50.998;4.250;2022-08-23T03:33:38;15.93;;;11.07;;
13592;SDS011;6867;50.998;4.250;2022-08-23T03:36:06;17.65;;;10.75;;
13592;SDS011;6867;50.998;4.250;2022-08-23T03:38:34;15.85;;;11.13;;
13592;SDS011;6867;50.998;4.250;2022-08-23T03:41:01;19.42;;;10.70;;
13592;SDS011;6867;50.998;4.250;2022-08-23T03:43:30;18.58;;;12.45;;
13592;SDS011;6867;50.998;4.250;2022-08-23T03:45:56;14.68;;;10.13;;
13592;SDS011;6867;50.998;4.250;2022-08-23T03:48:23;20.15;;;10.98;;
13592;SDS011;6867;50.998;4.250;2022-08-23T03:50:50;13.60;;;9.85;;
13592;SDS011;6867;50.998;4.250;2022-08-23T03:53:17;15.73;;;11.50;;
13592;SDS011;6867;50.998;4.250;2022-08-23T03:55:44;15.82;;;11.10;;
13592;SDS011;6867;50.998;4.250;2022-08-23T03:58:11;15.18;;;11.07;;
13592;SDS011;6867;50.998;4.250;2022-08-23T04:00:39;15.70;;;10.57;;
13592;SDS011;6867;50.998;4.250;2022-08-23T04:03:06;15.88;;;10.18;;
13592;SDS011;6867;50.998;4.250;2022-08-23T04:05:32;13.88;;;11.13;;
13592;SDS011;6867;50.998;4.250;2022-08-23T04:08:04;17.58;;;11.60;;
13592;SDS011;6867;50.998;4.250;2022-08-23T04:10:32;18.35;;;10.93;;
13592;SDS011;6867;50.998;4.250;2022-08-23T04:12:58;15.20;;;11.13;;
13592;SDS011;6867;50.998;4.250;2022-08-23T04:15:25;16.05;;;11.20;;
13592;SDS011;6867;50.998;4.250;2022-08-23T04:17:53;17.77;;;11.38;;
13592;SDS011;6867;50.998;4.250;2022-08-23T04:20:20;15.70;;;10.32;;
13592;SDS011;6867;50.998;4.250;2022-08-23T04:22:49;14.63;;;10.35;;
13592;SDS011;6867;50.998;4.250;2022-08-23T04:25:17;14.38;;;9.82;;
13592;SDS011;6867;50.998;4.250;2022-08-23T04:27:44;14.85;;;9.77;;
13592;SDS011;6867;50.998;4.250;2022-08-23T04:30:11;14.52;;;10.02;;
13592;SDS011;6867;50.998;4.250;2022-08-23T04:32:38;14.38;;;10.85;;
13592;SDS011;6867;50.998;4.250;2022-08-23T04:35:06;13.48;;;10.90;;
13592;SDS011;6867;50.998;4.250;2022-08-23T04:37:33;17.92;;;11.52;;
13592;SDS011;6867;50.998;4.250;2022-08-23T04:40:00;15.70;;;12.10;;
13592;SDS011;6867;50.998;4.250;2022-08-23T04:42:44;17.13;;;10.68;;
13592;SDS011;6867;50.998;4.250;2022-08-23T04:45:11;15.45;;;10.80;;
13592;SDS011;6867;50.998;4.250;2022-08-23T04:47:38;15.00;;;10.25;;
13592;SDS011;6867;50.998;4.250;2022-08-23T04:50:07;20.70;;;12.23;;
13592;SDS011;6867;50.998;4.250;2022-08-23T04:52:34;21.02;;;11.48;;
13592;SDS011;6867;50.998;4.250;2022-08-23T04:55:00;15.77;;;10.13;;
13592;SDS011;6867;50.998;4.250;2022-08-23T04:57:28;15.93;;;10.63;;
13592;SDS011;6867;50.998;4.250;2022-08-23T04:59:55;22.75;;;12.40;;
13592;SDS011;6867;50.998;4.250;2022-08-23T05:02:22;18.13;;;11.70;;
13592;SDS011;6867;50.998;4.250;2022-08-23T05:04:49;26.50;;;13.60;;
13592;SDS011;6867;50.998;4.250;2022-08-23T05:07:17;15.93;;;11.80;;
13592;SDS011;6867;50.998;4.250;2022-08-23T05:09:43;21.27;;;12.75;;
13592;SDS011;6867;50.998;4.250;2022-08-23T05:12:10;16.30;;;12.30;;
13592;SDS011;6867;50.998;4.250;2022-08-23T05:14:37;19.35;;;13.25;;
13592;SDS011;6867;50.998;4.250;2022-08-23T05:17:03;22.92;;;12.38;;
13592;SDS011;6867;50.998;4.250;2022-08-23T05:19:30;18.08;;;12.75;;
13592;SDS011;6867;50.998;4.250;2022-08-23T05:21:57;20.75;;;12.68;;
13592;SDS011;6867;50.998;4.250;2022-08-23T05:24:25;20.50;;;14.25;;
13592;SDS011;6867;50.998;4.250;2022-08-23T05:26:51;21.27;;;14.48;;
13592;SDS011;6867;50.998;4.250;2022-08-23T05:29:18;25.02;;;14.85;;
13592;SDS011;6867;50.998;4.250;2022-08-23T05:31:45;21.40;;;13.88;;
13592;SDS011;6867;50.998;4.250;2022-08-23T05:34:12;22.40;;;12.77;;
13592;SDS011;6867;50.998;4.250;2022-08-23T05:36:39;19.67;;;12.77;;
13592;SDS011;6867;50.998;4.250;2022-08-23T05:39:06;20.98;;;12.75;;
13592;SDS011;6867;50.998;4.250;2022-08-23T05:41:34;20.67;;;14.02;;
13592;SDS011;6867;50.998;4.250;2022-08-23T05:44:01;23.10;;;13.70;;
13592;SDS011;6867;50.998;4.250;2022-08-23T05:46:28;21.58;;;13.02;;
13592;SDS011;6867;50.998;4.250;2022-08-23T05:48:54;20.20;;;13.52;;
13592;SDS011;6867;50.998;4.250;2022-08-23T05:51:22;17.20;;;13.18;;
13592;SDS011;6867;50.998;4.250;2022-08-23T05:53:51;20.55;;;12.77;;
13592;SDS011;6867;50.998;4.250;2022-08-23T05:56:19;20.92;;;13.57;;
13592;SDS011;6867;50.998;4.250;2022-08-23T05:58:49;19.75;;;13.57;;
13592;SDS011;6867;50.998;4.250;2022-08-23T06:01:18;16.60;;;13.20;;
13592;SDS011;6867;50.998;4.250;2022-08-23T06:03:46;22.52;;;14.32;;
13592;SDS011;6867;50.998;4.250;2022-08-23T06:06:13;18.42;;;10.63;;
13592;SDS011;6867;50.998;4.250;2022-08-23T06:08:41;21.90;;;14.50;;
13592;SDS011;6867;50.998;4.250;2022-08-23T06:11:12;23.55;;;13.55;;
13592;SDS011;6867;50.998;4.250;2022-08-23T06:13:41;22.40;;;12.52;;
13592;SDS011;6867;50.998;4.250;2022-08-23T06:16:11;18.00;;;12.98;;
13592;SDS011;6867;50.998;4.250;2022-08-23T06:18:39;20.38;;;13.43;;
13592;SDS011;6867;50.998;4.250;2022-08-23T06:21:07;19.40;;;11.43;;
13592;SDS011;6867;50.998;4.250;2022-08-23T06:23:35;25.35;;;11.95;;
13592;SDS011;6867;50.998;4.250;2022-08-23T06:26:08;17.92;;;10.80;;
13592;SDS011;6867;50.998;4.250;2022-08-23T06:28:35;22.60;;;11.18;;
13592;SDS011;6867;50.998;4.250;2022-08-23T06:31:03;19.98;;;10.05;;
13592;SDS011;6867;50.998;4.250;2022-08-23T06:33:31;18.35;;;11.60;;
13592;SDS011;6867;50.998;4.250;2022-08-23T06:36:01;21.27;;;11.90;;
13592;SDS011;6867;50.998;4.250;2022-08-23T06:38:30;17.05;;;10.48;;
13592;SDS011;6867;50.998;4.250;2022-08-23T06:40:59;18.02;;;11.25;;
13592;SDS011;6867;50.998;4.250;2022-08-23T06:43:27;18.42;;;10.57;;
13592;SDS011;6867;50.998;4.250;2022-08-23T06:45:54;19.35;;;10.63;;
13592;SDS011;6867;50.998;4.250;2022-08-23T06:48:21;17.27;;;10.57;;
13592;SDS011;6867;50.998;4.250;2022-08-23T06:50:49;17.15;;;9.70;;
13592;SDS011;6867;50.998;4.250;2022-08-23T06:53:15;16.08;;;9.50;;
13592;SDS011;6867;50.998;4.250;2022-08-23T06:55:42;17.40;;;8.52;;
13592;SDS011;6867;50.998;4.250;2022-08-23T06:58:09;17.63;;;8.15;;
13592;SDS011;6867;50.998;4.250;2022-08-23T07:00:35;15.07;;;7.30;;
13592;SDS011;6867;50.998;4.250;2022-08-23T07:03:02;9.10;;;5.78;;
13592;SDS011;6867;50.998;4.250;2022-08-23T07:05:29;9.30;;;4.80;;
13592;SDS011;6867;50.998;4.250;2022-08-23T07:07:57;7.50;;;4.30;;
13592;SDS011;6867;50.998;4.250;2022-08-23T07:10:24;9.30;;;4.68;;
13592;SDS011;6867;50.998;4.250;2022-08-23T07:12:51;6.88;;;4.13;;
13592;SDS011;6867;50.998;4.250;2022-08-23T07:15:18;7.80;;;4.32;;
13592;SDS011;6867;50.998;4.250;2022-08-23T07:17:45;7.30;;;4.38;;
13592;SDS011;6867;50.998;4.250;2022-08-23T07:20:12;7.38;;;4.03;;
13592;SDS011;6867;50.998;4.250;2022-08-23T07:22:39;8.20;;;4.68;;
13592;SDS011;6867;50.998;4.250;2022-08-23T07:25:08;8.18;;;3.88;;
13592;SDS011;6867;50.998;4.250;2022-08-23T07:27:35;8.07;;;3.85;;
13592;SDS011;6867;50.998;4.250;2022-08-23T07:30:03;9.70;;;4.22;;
13592;SDS011;6867;50.998;4.250;2022-08-23T07:32:31;6.00;;;3.50;;
13592;SDS011;6867;50.998;4.250;2022-08-23T07:34:57;7.95;;;4.15;;
13592;SDS011;6867;50.998;4.250;2022-08-23T07:37:24;8.88;;;3.13;;
13592;SDS011;6867;50.998;4.250;2022-08-23T07:39:52;6.25;;;3.63;;
13592;SDS011;6867;50.998;4.250;2022-08-23T07:42:20;6.35;;;3.45;;
13592;SDS011;6867;50.998;4.250;2022-08-23T07:44:47;6.18;;;3.80;;
13592;SDS011;6867;50.998;4.250;2022-08-23T07:47:13;8.98;;;3.42;;
13592;SDS011;6867;50.998;4.250;2022-08-23T07:49:40;7.38;;;3.47;;
13592;SDS011;6867;50.998;4.250;2022-08-23T07:52:07;3.65;;;3.10;;
13592;SDS011;6867;50.998;4.250;2022-08-23T07:54:34;5.32;;;3.58;;
13592;SDS011;6867;50.998;4.250;2022-08-23T07:57:01;7.15;;;3.47;;
13592;SDS011;6867;50.998;4.250;2022-08-23T07:59:29;7.88;;;4.10;;
13592;SDS011;6867;50.998;4.250;2022-08-23T08:01:56;7.57;;;2.92;;
13592;SDS011;6867;50.998;4.250;2022-08-23T08:04:22;6.65;;;3.85;;
13592;SDS011;6867;50.998;4.250;2022-08-23T08:06:49;3.95;;;2.63;;
13592;SDS011;6867;50.998;4.250;2022-08-23T08:09:16;5.07;;;2.95;;
13592;SDS011;6867;50.998;4.250;2022-08-23T08:11:45;5.85;;;3.03;;
13592;SDS011;6867;50.998;4.250;2022-08-23T08:14:13;6.47;;;2.60;;
13592;SDS011;6867;50.998;4.250;2022-08-23T08:16:43;6.88;;;3.00;;
13592;SDS011;6867;50.998;4.250;2022-08-23T08:19:12;5.57;;;3.20;;
13592;SDS011;6867;50.998;4.250;2022-08-23T08:21:40;4.40;;;2.22;;
13592;SDS011;6867;50.998;4.250;2022-08-23T08:24:09;8.10;;;3.10;;
13592;SDS011;6867;50.998;4.250;2022-08-23T08:26:38;6.25;;;3.13;;
13592;SDS011;6867;50.998;4.250;2022-08-23T08:29:06;5.82;;;2.30;;
13592;SDS011;6867;50.998;4.250;2022-08-23T08:31:34;6.82;;;3.35;;
13592;SDS011;6867;50.998;4.250;2022-08-23T08:34:03;6.35;;;2.20;;
13592;SDS011;6867;50.998;4.250;2022-08-23T08:36:31;4.82;;;2.78;;
13592;SDS011;6867;50.998;4.250;2022-08-23T08:39:00;5.10;;;2.60;;
13592;SDS011;6867;50.998;4.250;2022-08-23T08:41:33;3.67;;;2.40;;
13592;SDS011;6867;50.998;4.250;2022-08-23T08:44:13;3.70;;;2.70;;
13592;SDS011;6867;50.998;4.250;2022-08-23T08:46:50;4.68;;;2.35;;
13592;SDS011;6867;50.998;4.250;2022-08-23T08:49:24;4.88;;;2.80;;
13592;SDS011;6867;50.998;4.250;2022-08-23T08:51:58;4.35;;;2.78;;
13592;SDS011;6867;50.998;4.250;2022-08-23T08:54:31;6.30;;;2.83;;
13592;SDS011;6867;50.998;4.250;2022-08-23T08:56:58;7.25;;;3.25;;
13592;SDS011;6867;50.998;4.250;2022-08-23T08:59:28;7.32;;;2.88;;
13592;SDS011;6867;50.998;4.250;2022-08-23T09:02:04;3.35;;;2.30;;
13592;SDS011;6867;50.998;4.250;2022-08-23T09:04:35;5.47;;;2.67;;
13592;SDS011;6867;50.998;4.250;2022-08-23T09:07:08;4.47;;;2.67;;
13592;SDS011;6867;50.998;4.250;2022-08-23T09:12:45;6.53;;;3.63;;
13592;SDS011;6867;50.998;4.250;2022-08-23T09:15:23;8.13;;;3.45;;
13592;SDS011;6867;50.998;4.250;2022-08-23T09:17:56;5.82;;;3.35;;
13592;SDS011;6867;50.998;4.250;2022-08-23T09:20:27;5.65;;;3.35;;
13592;SDS011;6867;50.998;4.250;2022-08-23T09:22:55;5.50;;;3.65;;
13592;SDS011;6867;50.998;4.250;2022-08-23T09:25:31;8.02;;;3.35;;
13592;SDS011;6867;50.998;4.250;2022-08-23T09:27:59;5.65;;;3.58;;
13592;SDS011;6867;50.998;4.250;2022-08-23T09:33:15;9.30;;;3.40;;
13592;SDS011;6867;50.998;4.250;2022-08-23T09:35:44;5.38;;;3.33;;
13592;SDS011;6867;50.998;4.250;2022-08-23T09:38:29;6.95;;;3.60;;
13592;SDS011;6867;50.998;4.250;2022-08-23T09:40:56;5.93;;;3.22;;
13592;SDS011;6867;50.998;4.250;2022-08-23T09:43:23;8.93;;;4.10;;
13592;SDS011;6867;50.998;4.250;2022-08-23T09:45:53;9.45;;;3.50;;
13592;SDS011;6867;50.998;4.250;2022-08-23T09:48:31;5.05;;;2.83;;
13592;SDS011;6867;50.998;4.250;2022-08-23T09:51:11;4.25;;;2.30;;
13592;SDS011;6867;50.998;4.250;2022-08-23T09:53:43;5.15;;;2.88;;
13592;SDS011;6867;50.998;4.250;2022-08-23T09:56:14;5.85;;;2.10;;
13592;SDS011;6867;50.998;4.250;2022-08-23T09:58:45;4.40;;;2.13;;
13592;SDS011;6867;50.998;4.250;2022-08-23T10:01:17;4.28;;;2.78;;
13592;SDS011;6867;50.998;4.250;2022-08-23T10:03:46;7.65;;;1.75;;
13592;SDS011;6867;50.998;4.250;2022-08-23T10:06:32;2.45;;;1.98;;
13592;SDS011;6867;50.998;4.250;2022-08-23T10:08:59;4.05;;;1.85;;
13592;SDS011;6867;50.998;4.250;2022-08-23T10:11:30;2.10;;;1.42;;
13592;SDS011;6867;50.998;4.250;2022-08-23T10:14:01;5.53;;;1.50;;
13592;SDS011;6867;50.998;4.250;2022-08-23T10:16:30;3.33;;;1.33;;
13592;SDS011;6867;50.998;4.250;2022-08-23T10:19:05;2.17;;;1.50;;
13592;SDS011;6867;50.998;4.250;2022-08-23T10:21:40;3.47;;;1.52;;
13592;SDS011;6867;50.998;4.250;2022-08-23T10:24:22;4.00;;;1.50;;
13592;SDS011;6867;50.998;4.250;2022-08-23T10:27:04;4.85;;;1.40;;
13592;SDS011;6867;50.998;4.250;2022-08-23T10:29:53;3.45;;;1.58;;
13592;SDS011;6867;50.998;4.250;2022-08-23T10:32:31;2.35;;;1.00;;
13592;SDS011;6867;50.998;4.250;2022-08-23T10:35:25;3.08;;;1.48;;
13592;SDS011;6867;50.998;4.250;2022-08-23T10:38:02;1.65;;;0.98;;
13592;SDS011;6867;50.998;4.250;2022-08-23T10:40:48;1.38;;;1.27;;
13592;SDS011;6867;50.998;4.250;2022-08-23T10:43:27;1.63;;;1.10;;
13592;SDS011;6867;50.998;4.250;2022-08-23T10:46:01;3.67;;;1.33;;
13592;SDS011;6867;50.998;4.250;2022-08-23T10:48:29;1.85;;;1.10;;
13592;SDS011;6867;50.998;4.250;2022-08-23T10:50:59;1.83;;;0.98;;
13592;SDS011;6867;50.998;4.250;2022-08-23T10:53:37;2.78;;;1.55;;
13592;SDS011;6867;50.998;4.250;2022-08-23T10:56:10;0.98;;;0.98;;
13592;SDS011;6867;50.998;4.250;2022-08-23T10:58:44;3.50;;;1.52;;
13592;SDS011;6867;50.998;4.250;2022-08-23T11:01:13;0.90;;;0.90;;
13592;SDS011;6867;50.998;4.250;2022-08-23T11:03:46;1.67;;;1.08;;
13592;SDS011;6867;50.998;4.250;2022-08-23T11:06:24;1.95;;;0.90;;
13592;SDS011;6867;50.998;4.250;2022-08-23T11:12:05;1.23;;;1.00;;
13592;SDS011;6867;50.998;4.250;2022-08-23T11:14:39;1.48;;;1.00;;
13592;SDS011;6867;50.998;4.250;2022-08-23T11:17:11;0.95;;;0.90;;
13592;SDS011;6867;50.998;4.250;2022-08-23T11:19:52;1.15;;;1.05;;
13592;SDS011;6867;50.998;4.250;2022-08-23T11:22:20;1.25;;;0.85;;
13592;SDS011;6867;50.998;4.250;2022-08-23T11:24:54;1.65;;;1.00;;
13592;SDS011;6867;50.998;4.250;2022-08-23T11:27:24;1.20;;;0.90;;
13592;SDS011;6867;50.998;4.250;2022-08-23T11:29:54;4.53;;;1.38;;
13592;SDS011;6867;50.998;4.250;2022-08-23T11:35:11;2.15;;;1.15;;
13592;SDS011;6867;50.998;4.250;2022-08-23T11:38:01;1.00;;;0.90;;
13592;SDS011;6867;50.998;4.250;2022-08-23T11:40:37;1.25;;;1.08;;
13592;SDS011;6867;50.998;4.250;2022-08-23T11:43:09;1.38;;;1.00;;
13592;SDS011;6867;50.998;4.250;2022-08-23T11:45:46;1.27;;;1.17;;
13592;SDS011;6867;50.998;4.250;2022-08-23T11:48:15;2.10;;;1.20;;
13592;SDS011;6867;50.998;4.250;2022-08-23T11:50:50;2.55;;;1.25;;
13592;SDS011;6867;50.998;4.250;2022-08-23T11:53:31;1.30;;;1.20;;
13592;SDS011;6867;50.998;4.250;2022-08-23T11:59:12;2.97;;;1.10;;
13592;SDS011;6867;50.998;4.250;2022-08-23T12:01:54;2.90;;;1.08;;
13592;SDS011;6867;50.998;4.250;2022-08-23T12:04:30;1.13;;;1.10;;
13592;SDS011;6867;50.998;4.250;2022-08-23T12:07:02;2.63;;;1.42;;
13592;SDS011;6867;50.998;4.250;2022-08-23T12:09:50;1.75;;;1.42;;
13592;SDS011;6867;50.998;4.250;2022-08-23T12:12:30;6.72;;;1.20;;
13592;SDS011;6867;50.998;4.250;2022-08-23T12:15:00;2.17;;;1.98;;
13592;SDS011;6867;50.998;4.250;2022-08-23T12:20:31;1.92;;;1.40;;
13592;SDS011;6867;50.998;4.250;2022-08-23T12:23:00;3.13;;;1.85;;
13592;SDS011;6867;50.998;4.250;2022-08-23T12:25:33;1.33;;;1.00;;
13592;SDS011;6867;50.998;4.250;2022-08-23T12:28:05;1.20;;;1.10;;
13592;SDS011;6867;50.998;4.250;2022-08-23T12:30:47;2.75;;;1.02;;
13592;SDS011;6867;50.998;4.250;2022-08-23T12:33:24;3.45;;;1.05;;
13592;SDS011;6867;50.998;4.250;2022-08-23T12:36:00;2.03;;;1.05;;
13592;SDS011;6867;50.998;4.250;2022-08-23T12:38:35;0.75;;;0.70;;
13592;SDS011;6867;50.998;4.250;2022-08-23T12:41:12;0.80;;;0.80;;
13592;SDS011;6867;50.998;4.250;2022-08-23T12:43:53;1.73;;;0.80;;
13592;SDS011;6867;50.998;4.250;2022-08-23T12:46:29;3.03;;;0.98;;
13592;SDS011;6867;50.998;4.250;2022-08-23T12:48:58;3.50;;;1.70;;
13592;SDS011;6867;50.998;4.250;2022-08-23T12:51:26;1.45;;;1.02;;
13592;SDS011;6867;50.998;4.250;2022-08-23T12:53:52;0.85;;;0.85;;
13592;SDS011;6867;50.998;4.250;2022-08-23T12:56:20;0.85;;;0.70;;
13592;SDS011;6867;50.998;4.250;2022-08-23T12:58:50;1.20;;;1.10;;
13592;SDS011;6867;50.998;4.250;2022-08-23T13:01:22;0.60;;;0.60;;
13592;SDS011;6867;50.998;4.250;2022-08-23T13:03:51;0.77;;;0.68;;
13592;SDS011;6867;50.998;4.250;2022-08-23T13:06:21;1.25;;;0.98;;
13592;SDS011;6867;50.998;4.250;2022-08-23T13:08:53;1.02;;;0.90;;
13592;SDS011;6867;50.998;4.250;2022-08-23T13:11:24;0.70;;;0.70;;
13592;SDS011;6867;50.998;4.250;2022-08-23T13:13:57;1.30;;;0.73;;
13592;SDS011;6867;50.998;4.250;2022-08-23T13:16:26;2.10;;;0.73;;
13592;SDS011;6867;50.998;4.250;2022-08-23T13:19:09;0.95;;;0.60;;
13592;SDS011;6867;50.998;4.250;2022-08-23T13:21:40;1.23;;;0.90;;
13592;SDS011;6867;50.998;4.250;2022-08-23T13:24:26;0.65;;;0.65;;
13592;SDS011;6867;50.998;4.250;2022-08-23T13:27:09;0.63;;;0.63;;
13592;SDS011;6867;50.998;4.250;2022-08-23T13:29:48;1.08;;;0.98;;
13592;SDS011;6867;50.998;4.250;2022-08-23T13:32:27;1.55;;;0.90;;
13592;SDS011;6867;50.998;4.250;2022-08-23T13:37:56;2.55;;;1.05;;
13592;SDS011;6867;50.998;4.250;2022-08-23T13:40:26;1.30;;;0.95;;
13592;SDS011;6867;50.998;4.250;2022-08-23T13:42:56;1.40;;;0.93;;
13592;SDS011;6867;50.998;4.250;2022-08-23T13:45:28;0.80;;;0.80;;
13592;SDS011;6867;50.998;4.250;2022-08-23T13:47:57;4.00;;;2.30;;
13592;SDS011;6867;50.998;4.250;2022-08-23T13:50:27;1.27;;;1.17;;
13592;SDS011;6867;50.998;4.250;2022-08-23T13:52:58;1.30;;;1.20;;
13592;SDS011;6867;50.998;4.250;2022-08-23T13:55:25;2.70;;;1.20;;
13592;SDS011;6867;50.998;4.250;2022-08-23T13:57:53;1.40;;;1.30;;
13592;SDS011;6867;50.998;4.250;2022-08-23T14:00:20;2.80;;;1.38;;
13592;SDS011;6867;50.998;4.250;2022-08-23T14:02:50;1.88;;;1.10;;
13592;SDS011;6867;50.998;4.250;2022-08-23T14:05:18;1.30;;;1.20;;
13592;SDS011;6867;50.998;4.250;2022-08-23T14:07:49;1.35;;;1.00;;
13592;SDS011;6867;50.998;4.250;2022-08-23T14:10:17;1.33;;;1.02;;
13592;SDS011;6867;50.998;4.250;2022-08-23T14:12:44;2.55;;;1.00;;
13592;SDS011;6867;50.998;4.250;2022-08-23T14:15:12;1.40;;;1.20;;
13592;SDS011;6867;50.998;4.250;2022-08-23T14:17:42;2.42;;;1.02;;
13592;SDS011;6867;50.998;4.250;2022-08-23T14:20:12;2.28;;;0.88;;
13592;SDS011;6867;50.998;4.250;2022-08-23T14:22:40;2.00;;;0.98;;
13592;SDS011;6867;50.998;4.250;2022-08-23T14:25:07;0.88;;;0.88;;
13592;SDS011;6867;50.998;4.250;2022-08-23T14:27:37;0.80;;;0.77;;
13592;SDS011;6867;50.998;4.250;2022-08-23T14:30:05;0.90;;;0.88;;
13592;SDS011;6867;50.998;4.250;2022-08-23T14:32:35;2.15;;;1.20;;
13592;SDS011;6867;50.998;4.250;2022-08-23T14:35:03;1.05;;;0.95;;
13592;SDS011;6867;50.998;4.250;2022-08-23T14:37:32;1.13;;;0.82;;
13592;SDS011;6867;50.998;4.250;2022-08-23T14:39:58;4.70;;;1.08;;
13592;SDS011;6867;50.998;4.250;2022-08-23T14:42:25;0.90;;;0.90;;
13592;SDS011;6867;50.998;4.250;2022-08-23T14:44:51;1.70;;;1.20;;
13592;SDS011;6867;50.998;4.250;2022-08-23T14:47:18;1.27;;;1.00;;
13592;SDS011;6867;50.998;4.250;2022-08-23T14:49:45;1.38;;;1.02;;
13592;SDS011;6867;50.998;4.250;2022-08-23T14:52:12;1.27;;;0.90;;
13592;SDS011;6867;50.998;4.250;2022-08-23T14:54:40;3.10;;;1.20;;
13592;SDS011;6867;50.998;4.250;2022-08-23T14:57:07;1.00;;;0.90;;
13592;SDS011;6867;50.998;4.250;2022-08-23T14:59:34;1.30;;;1.15;;
13592;SDS011;6867;50.998;4.250;2022-08-23T15:02:01;0.77;;;0.77;;
13592;SDS011;6867;50.998;4.250;2022-08-23T15:04:29;0.98;;;0.93;;
13592;SDS011;6867;50.998;4.250;2022-08-23T15:06:55;1.35;;;1.00;;
13592;SDS011;6867;50.998;4.250;2022-08-23T15:09:22;1.65;;;1.10;;
13592;SDS011;6867;50.998;4.250;2022-08-23T15:11:50;1.35;;;1.20;;
13592;SDS011;6867;50.998;4.250;2022-08-23T15:14:18;1.33;;;1.23;;
13592;SDS011;6867;50.998;4.250;2022-08-23T15:16:45;1.70;;;0.77;;
13592;SDS011;6867;50.998;4.250;2022-08-23T15:19:12;2.15;;;1.23;;
13592;SDS011;6867;50.998;4.250;2022-08-23T15:21:39;2.70;;;1.20;;
13592;SDS011;6867;50.998;4.250;2022-08-23T15:24:06;1.40;;;1.17;;
13592;SDS011;6867;50.998;4.250;2022-08-23T15:26:33;1.08;;;0.98;;
13592;SDS011;6867;50.998;4.250;2022-08-23T15:29:02;1.15;;;1.05;;